Portada
METAR-TAF:

METAR-TAF

Aeroports :

Kazan, Rússia

latitud: 55-47N, longitud: 049-12E, altitud: 125 m

Observació

L'informe es va fer fa 39 minuts, a les 04:30 UTC
Vent 2 kt del Oest/Nord-Oest
Temperatura -16°C
Humitat 78%
Pressió 1052 hPa
Visibilitat 10 km o més
sense núvols per sota de 1500 mi sense presència de cumulonimbus.

METAR: UWKD 210430Z 29001MPS CAVOK M16/M19 Q1052 R29/710050 NOSIG RMK QFE777/1036

Hora: 08:09 (05:09 UTC)

Pronòstic

L'informe es va fer fa 3 hores i 9 minuts, a les 02:00 UTC
Pronòstic vàlid del 21 a les 03 UTC al 22 a les 03 UTC
Vent 2 kt amb direcció variable
Visibilitat 10 km o més
sense núvols per sota de 1500 mi sense presència de cumulonimbus.
Evolucionant progressivament
l' 21 a les 06 UTC al 21 a les 08 UTC
Vent 6 kt del Oest/Nord-Oest

TAF: UWKD 210200Z 2103/2203 VRB01MPS CAVOK TXM07/2111Z TNM12/2203Z BECMG 2106/2108 29003MPS

Observacions i pronòstics meteorològics de més de 4000 aeroports (METAR i TAF).

Les estacions disponibles són els punts grocs i vermells al mapa.

Posi el ratolí al punt desitjat per veure el nom de l'estació.

Feu clic per veure les observacions i els pronòstics meteorològics.

Per canviar el mapa: feu clic els botons verds amb una creu de color negre per apropar; al botó verd amb un guió per allunyar la imatge; o en les fletxes verdes per a mapes adjacents.


METAR-TAF: